Humboldt, Nevada
Current Conditions -  °F | °C
As of 4:56 AM on Friday 28 Nov 2014 (Local Time) from KWMC Reporting Station
Clear Clear  
Wind Chill: 35°   Ceiling: Unl
Heat Index: 41°   Visibility: 10mi
Dew Point: 21°   Wind: 9mph
Humidity: 45%   Direction: 180°S
Pressure: 29.99"   Gusts: NA
Location:  40.601°N, 117.984°W
Report Text: KWMC 281256Z AUTO 18008KT 10SM CLR 05/M06 A2999 RMK AO2 SLP142 T00501061
Loading
Personal Weather Stations






























Interactive Weather Map New forecast layout! Learn more

10-Day Weather Forecast

Advertisements
Track Severe Weather on mobile